Sinking Spring, Pennsylvania
Current Conditions -  °F | °C
As of 3:23 PM on Wednesday 26 Nov 2014 (Local Time) from KRDG Reporting Station
Light Snow Light Snow  
Wind Chill: 27°   Ceiling: 400
Heat Index: 34°   Visibility: 1.5mi
Dew Point: 31°   Wind: 9mph
Humidity: 89%   Direction: 340°NNW
Pressure: 29.9"   Gusts: NA
Location:  40.3199°N, 76.0339°W
Report Text: KRDG 262023Z 34008KT 1 1/2SM R36/5500VP6000FT -SN BR BKN004 BKN009 OVC019 01/M01 A2990 RMK AO2 P0001 T00111006
Loading
Personal Weather Stations






























Interactive Weather Map New forecast layout! Learn more

10-Day Weather Forecast

Advertisements
Track Severe Weather on mobile